Time;durP1;ratioP1;P1;durP2;ratioP2;P2;SDS_P1;SDS_P2;PMS_P1;PMS_P2;Temp;Humidity;BMP_temperature;BMP_pressure;BME280_temperature;BME280_humidity;BME280_pressure;Samples;Min_cycle;Max_cycle;Signal;HPM_P1;HPM_P2
2023/06/09 00:00:55;;;;;;;26.13;24.73;;;24.20;76.10;;;;;;5074166;28;20479;-68
2023/06/09 00:03:22;;;;;;;25.90;24.70;;;24.30;76.70;;;;;;5074031;28;21010;-68
2023/06/09 00:05:49;;;;;;;26.70;25.30;;;24.20;77.60;;;;;;5074286;28;20479;-68
2023/06/09 00:08:16;;;;;;;26.60;25.20;;;24.10;78.20;;;;;;5073988;28;20522;-68
2023/06/09 00:10:43;;;;;;;25.20;23.93;;;24.10;78.10;;;;;;5073510;28;20467;-66
2023/06/09 00:13:11;;;;;;;26.63;25.13;;;24.10;78.60;;;;;;5074380;28;20463;-66
2023/06/09 00:15:38;;;;;;;25.70;24.40;;;24.10;78.80;;;;;;5074612;28;20512;-65
2023/06/09 00:18:06;;;;;;;25.33;24.13;;;24.10;79.20;;;;;;5074132;28;20837;-65
2023/06/09 00:20:33;;;;;;;25.57;24.27;;;24.10;79.00;;;;;;5073895;28;20594;-68
2023/06/09 00:23:00;;;;;;;26.63;25.23;;;24.00;79.60;;;;;;5073676;28;20467;-67
2023/06/09 00:25:27;;;;;;;26.90;25.60;;;24.00;79.80;;;;;;5073710;28;20493;-68
2023/06/09 00:27:54;;;;;;;28.20;26.83;;;24.00;80.10;;;;;;5073539;28;20833;-65
2023/06/09 00:30:23;;;;;;;26.33;24.97;;;24.00;80.10;;;;;;5073705;28;20527;-66
2023/06/09 00:32:50;;;;;;;26.00;24.60;;;24.00;80.10;;;;;;5073582;28;20467;-66
2023/06/09 00:35:17;;;;;;;25.83;24.60;;;24.00;80.80;;;;;;5073642;28;20482;-66
2023/06/09 00:37:46;;;;;;;25.57;24.27;;;23.90;81.20;;;;;;5073430;28;20523;-67
2023/06/09 00:40:14;;;;;;;27.07;25.43;;;23.90;80.60;;;;;;5073026;28;20483;-66
2023/06/09 00:42:41;;;;;;;26.60;25.20;;;23.90;79.70;;;;;;5073213;28;20563;-67
2023/06/09 00:45:09;;;;;;;26.97;25.57;;;23.90;80.40;;;;;;5073636;28;20487;-65
2023/06/09 00:47:37;;;;;;;27.30;25.80;;;23.90;81.70;;;;;;5073259;28;20522;-67
2023/06/09 00:50:06;;;;;;;27.77;26.27;;;23.90;79.90;;;;;;5073121;28;20779;-67
2023/06/09 00:52:33;;;;;;;26.33;25.00;;;23.90;80.60;;;;;;5073005;28;20474;-67
2023/06/09 00:55:00;;;;;;;27.17;25.57;;;23.80;80.90;;;;;;5073098;28;20530;-67
2023/06/09 00:57:29;;;;;;;27.93;26.53;;;23.80;80.90;;;;;;5073128;28;21013;-67
2023/06/09 00:59:57;;;;;;;26.40;25.00;;;23.80;81.40;;;;;;5072589;28;20487;-67
2023/06/09 01:02:24;;;;;;;25.60;24.30;;;23.80;81.00;;;;;;5072720;28;20510;-67
2023/06/09 01:04:54;;;;;;;26.43;25.03;;;23.80;80.70;;;;;;5073322;28;20508;-67
2023/06/09 01:07:32;;;;;;;26.73;25.37;;;23.80;82.00;;;;;;5073165;28;20509;-67
2023/06/09 01:10:05;;;;;;;25.63;24.23;;;23.80;81.60;;;;;;5072747;28;20443;-67
2023/06/09 01:12:45;;;;;;;27.03;25.63;;;23.80;81.80;;;;;;5072391;28;20865;-67
2023/06/09 01:15:18;;;;;;;26.77;25.17;;;23.70;83.50;;;;;;5072824;28;20522;-66
2023/06/09 01:17:49;;;;;;;26.70;25.40;;;23.70;82.80;;;;;;5072553;28;20451;-67
2023/06/09 01:20:31;;;;;;;26.63;25.23;;;23.70;82.10;;;;;;5072583;28;20850;-67
2023/06/09 01:23:06;;;;;;;27.20;25.80;;;23.70;81.60;;;;;;5069734;28;20494;-66
2023/06/09 01:25:39;;;;;;;28.57;26.77;;;23.70;82.40;;;;;;5072517;28;20478;-67
2023/06/09 01:28:07;;;;;;;26.70;25.30;;;23.70;81.50;;;;;;5072517;28;20502;-67
2023/06/09 01:30:36;;;;;;;27.50;26.00;;;23.70;80.80;;;;;;5072389;28;20886;-66
2023/06/09 01:33:07;;;;;;;26.37;25.07;;;23.60;81.20;;;;;;5072350;28;20471;-67
2023/06/09 01:35:35;;;;;;;28.93;27.10;;;23.60;81.40;;;;;;5072308;28;20542;-67
2023/06/09 01:38:03;;;;;;;26.60;25.30;;;23.60;81.50;;;;;;5072153;28;20502;-67
2023/06/09 01:40:31;;;;;;;27.57;26.07;;;23.60;81.00;;;;;;5071929;28;20489;-68
2023/06/09 01:43:01;;;;;;;27.30;25.90;;;23.60;81.10;;;;;;5072293;28;20566;-67
2023/06/09 01:45:27;;;;;;;26.93;25.23;;;23.50;81.10;;;;;;5072259;28;20482;-67
2023/06/09 01:47:55;;;;;;;27.27;25.77;;;23.50;80.50;;;;;;5072289;28;20541;-67
2023/06/09 01:50:30;;;;;;;26.60;25.17;;;23.60;80.30;;;;;;5072222;28;20535;-67
2023/06/09 01:53:05;;;;;;;27.50;26.07;;;23.60;81.00;;;;;;5072321;28;20463;-67
2023/06/09 01:55:37;;;;;;;27.00;25.60;;;23.50;81.60;;;;;;5072106;28;20530;-67
2023/06/09 01:58:10;;;;;;;26.77;25.37;;;23.50;80.50;;;;;;5071820;28;20451;-67
2023/06/09 02:00:38;;;;;;;26.47;25.17;;;23.50;80.50;;;;;;5071619;28;20566;-67
2023/06/09 02:03:07;;;;;;;27.67;26.27;;;23.40;81.50;;;;;;5071775;28;20562;-67
2023/06/09 02:05:36;;;;;;;26.90;25.50;;;23.40;80.80;;;;;;5072050;28;20483;-67
2023/06/09 02:08:04;;;;;;;26.67;25.27;;;23.40;80.70;;;;;;5071841;28;20486;-67
2023/06/09 02:10:32;;;;;;;25.27;24.07;;;23.50;80.50;;;;;;5071514;28;20985;-67
2023/06/09 02:13:11;;;;;;;26.70;25.40;;;23.40;81.60;;;;;;5071587;28;20546;-67
2023/06/09 02:15:40;;;;;;;26.53;25.03;;;23.30;81.80;;;;;;5071660;28;20482;-67
2023/06/09 02:18:10;;;;;;;27.13;25.57;;;23.40;80.90;;;;;;5071816;28;20473;-68
2023/06/09 02:20:37;;;;;;;26.50;25.10;;;23.30;82.00;;;;;;5071188;28;20478;-68
2023/06/09 02:23:03;;;;;;;27.47;25.93;;;23.30;81.90;;;;;;5071713;28;20542;-67
2023/06/09 02:25:32;;;;;;;26.67;25.20;;;23.30;82.40;;;;;;5071678;28;20537;-68
2023/06/09 02:27:59;;;;;;;26.63;25.23;;;23.30;81.80;;;;;;5071473;28;20474;-68
2023/06/09 02:30:26;;;;;;;26.40;25.00;;;23.30;80.90;;;;;;5071415;28;20522;-67
2023/06/09 02:32:55;;;;;;;26.60;25.30;;;23.30;81.20;;;;;;5071066;28;20506;-68
2023/06/09 02:35:21;;;;;;;28.17;26.57;;;23.30;81.30;;;;;;5071667;28;20443;-67
2023/06/09 02:37:49;;;;;;;26.33;24.83;;;23.30;80.60;;;;;;5071377;28;20877;-68
2023/06/09 02:40:15;;;;;;;26.90;25.50;;;23.30;81.10;;;;;;5071231;28;20447;-67
2023/06/09 02:42:42;;;;;;;27.27;25.77;;;23.20;81.30;;;;;;5071400;28;20551;-68
2023/06/09 02:45:10;;;;;;;26.90;25.50;;;23.30;81.10;;;;;;5071595;28;20534;-68
2023/06/09 02:47:37;;;;;;;26.70;25.20;;;23.20;81.20;;;;;;5071434;28;20543;-68
2023/06/09 02:50:07;;;;;;;27.37;25.90;;;23.20;81.30;;;;;;5070991;28;20502;-68
2023/06/09 02:52:34;;;;;;;27.37;25.77;;;23.20;81.20;;;;;;5071281;28;20467;-68
2023/06/09 02:55:01;;;;;;;28.80;27.30;;;23.20;80.90;;;;;;5071398;28;20870;-67
2023/06/09 02:57:29;;;;;;;27.70;26.00;;;23.20;81.20;;;;;;5071468;28;20547;-68
2023/06/09 02:59:56;;;;;;;26.80;25.23;;;23.20;81.20;;;;;;5070909;28;20482;-67
2023/06/09 03:02:23;;;;;;;27.23;25.90;;;23.20;81.00;;;;;;5071566;28;20487;-67
2023/06/09 03:04:52;;;;;;;26.13;24.93;;;23.10;81.80;;;;;;5071153;28;20846;-68
2023/06/09 03:07:20;;;;;;;26.90;25.50;;;23.10;82.10;;;;;;5071087;28;20451;-67
2023/06/09 03:09:47;;;;;;;26.80;25.30;;;23.00;83.50;;;;;;5070617;28;20783;-67
2023/06/09 03:12:14;;;;;;;26.60;25.20;;;22.90;84.00;;;;;;5071103;28;20550;-67
2023/06/09 03:14:41;;;;;;;25.93;24.63;;;23.00;83.30;;;;;;5070924;28;20885;-67
2023/06/09 03:17:08;;;;;;;27.07;25.67;;;23.00;82.70;;;;;;5070961;28;20539;-67
2023/06/09 03:19:35;;;;;;;27.20;25.60;;;22.90;83.20;;;;;;5070440;28;20530;-67
2023/06/09 03:22:03;;;;;;;27.23;25.83;;;23.00;84.10;;;;;;5070634;28;20989;-68
2023/06/09 03:24:33;;;;;;;27.43;25.90;;;22.90;83.90;;;;;;5070947;28;20443;-68
2023/06/09 03:27:00;;;;;;;28.03;26.57;;;22.90;83.00;;;;;;5070926;28;20579;-68
2023/06/09 03:29:28;;;;;;;27.97;26.57;;;23.00;81.60;;;;;;5070346;28;20530;-67
2023/06/09 03:31:55;;;;;;;26.83;25.43;;;23.00;81.30;;;;;;5070515;28;20491;-68
2023/06/09 03:34:22;;;;;;;26.70;25.30;;;23.00;81.10;;;;;;5070706;28;20526;-67
2023/06/09 03:36:49;;;;;;;28.20;26.30;;;23.00;80.70;;;;;;5070713;28;20439;-67
2023/06/09 03:39:17;;;;;;;27.10;25.70;;;23.00;80.90;;;;;;5070314;28;20455;-67
2023/06/09 03:41:45;;;;;;;26.60;25.20;;;22.90;80.60;;;;;;5070577;28;20483;-68
2023/06/09 03:44:12;;;;;;;28.23;26.73;;;22.90;80.90;;;;;;5070672;28;20478;-67
2023/06/09 03:46:38;;;;;;;27.70;26.23;;;22.90;81.30;;;;;;5074191;28;20452;-67
2023/06/09 03:49:05;;;;;;;26.50;25.10;;;22.90;81.00;;;;;;5073885;28;20603;-68
2023/06/09 03:51:32;;;;;;;26.50;25.10;;;22.90;81.10;;;;;;5073692;28;21006;-68
2023/06/09 03:53:59;;;;;;;27.03;25.40;;;22.80;81.50;;;;;;5074137;28;20538;-68
2023/06/09 03:56:26;;;;;;;26.40;25.00;;;22.90;81.00;;;;;;5074111;28;20521;-68
2023/06/09 03:58:54;;;;;;;27.00;25.60;;;22.80;81.90;;;;;;5073900;28;20475;-68
2023/06/09 04:01:22;;;;;;;27.60;26.20;;;22.80;82.30;;;;;;5073491;28;20531;-68
2023/06/09 04:03:49;;;;;;;27.27;25.87;;;22.80;82.60;;;;;;5074119;28;20812;-68
2023/06/09 04:06:16;;;;;;;28.90;27.40;;;22.80;83.10;;;;;;5073883;28;20525;-68
2023/06/09 04:08:44;;;;;;;27.17;25.67;;;22.70;83.10;;;;;;5073712;28;20526;-68
2023/06/09 04:11:11;;;;;;;27.53;26.03;;;22.80;82.90;;;;;;5073366;28;20485;-67
2023/06/09 04:13:38;;;;;;;28.40;26.80;;;22.90;82.20;;;;;;5073725;28;20891;-67
2023/06/09 04:16:06;;;;;;;29.50;27.70;;;22.90;81.50;;;;;;5073716;28;20874;-68
2023/06/09 04:18:33;;;;;;;29.77;27.87;;;22.90;81.80;;;;;;5073582;28;20521;-67
2023/06/09 04:21:00;;;;;;;27.87;26.07;;;23.00;82.00;;;;;;5073247;28;20585;-68
2023/06/09 04:23:27;;;;;;;29.00;27.30;;;23.00;82.50;;;;;;5073560;28;21024;-68
2023/06/09 04:25:54;;;;;;;30.33;28.53;;;23.00;84.50;;;;;;5073713;28;20458;-66
2023/06/09 04:28:21;;;;;;;28.20;26.40;;;23.00;89.20;;;;;;5072698;28;20467;-65
2023/06/09 04:30:49;;;;;;;30.03;28.33;;;23.00;86.40;;;;;;5069940;28;20530;-63
2023/06/09 04:33:18;;;;;;;28.27;26.67;;;23.00;87.90;;;;;;5073487;28;20517;-63
2023/06/09 04:35:46;;;;;;;29.73;27.60;;;23.10;87.90;;;;;;5073466;28;20482;-64
2023/06/09 04:38:14;;;;;;;28.57;26.97;;;23.20;86.20;;;;;;5073204;28;20538;-63
2023/06/09 04:40:40;;;;;;;28.33;26.57;;;23.20;84.40;;;;;;5073245;28;20798;-64
2023/06/09 04:43:08;;;;;;;29.27;27.67;;;23.20;83.70;;;;;;5073057;28;21061;-62
2023/06/09 04:45:35;;;;;;;27.97;26.37;;;23.20;83.30;;;;;;5073278;28;20443;-61
2023/06/09 04:48:02;;;;;;;28.53;26.93;;;23.30;83.20;;;;;;5073013;28;20469;-65
2023/06/09 04:50:32;;;;;;;28.00;26.40;;;23.20;82.90;;;;;;5072979;28;20534;-65
2023/06/09 04:53:03;;;;;;;29.00;27.40;;;23.30;83.20;;;;;;5072979;28;20482;-65
2023/06/09 04:55:30;;;;;;;27.57;26.07;;;23.30;83.10;;;;;;5073062;28;20486;-64
2023/06/09 04:57:57;;;;;;;27.97;26.37;;;23.30;82.80;;;;;;5072799;28;20943;-64
2023/06/09 05:00:26;;;;;;;27.80;26.30;;;23.30;82.70;;;;;;5072870;28;20526;-65
2023/06/09 05:02:54;;;;;;;29.33;27.63;;;23.30;82.30;;;;;;5072592;28;20525;-65
2023/06/09 05:05:21;;;;;;;29.00;27.33;;;23.30;82.30;;;;;;5072770;28;20455;-64
2023/06/09 05:07:49;;;;;;;26.73;25.33;;;23.30;81.80;;;;;;5072625;28;20961;-64
2023/06/09 05:10:16;;;;;;;28.03;26.47;;;23.30;81.70;;;;;;5072635;28;20534;-64
2023/06/09 05:12:43;;;;;;;27.13;25.80;;;23.30;81.40;;;;;;5072584;28;20542;-64
2023/06/09 05:15:11;;;;;;;27.20;25.70;;;23.30;81.30;;;;;;5072617;28;20971;-64
2023/06/09 05:17:41;;;;;;;28.20;26.63;;;23.40;81.10;;;;;;5072558;28;20530;-64
2023/06/09 05:20:09;;;;;;;28.47;26.73;;;23.40;81.00;;;;;;5072611;28;20534;-64
2023/06/09 05:22:37;;;;;;;28.00;26.50;;;23.40;80.80;;;;;;5072291;28;20893;-64
2023/06/09 05:25:09;;;;;;;27.27;25.87;;;23.40;80.70;;;;;;5072426;28;20482;-64
2023/06/09 05:27:36;;;;;;;27.20;25.70;;;23.40;80.60;;;;;;5072389;28;20870;-64
2023/06/09 05:30:03;;;;;;;27.10;25.60;;;23.40;80.30;;;;;;5072078;28;20447;-64
2023/06/09 05:32:30;;;;;;;27.17;25.67;;;23.40;80.20;;;;;;5072225;28;21182;-64
2023/06/09 05:34:57;;;;;;;27.87;26.47;;;23.40;80.00;;;;;;5072251;28;20444;-64
2023/06/09 05:37:24;;;;;;;28.10;26.43;;;23.40;79.90;;;;;;5072271;28;20440;-64
2023/06/09 05:39:51;;;;;;;26.67;25.33;;;23.40;79.70;;;;;;5072029;28;20455;-64
2023/06/09 05:42:19;;;;;;;27.53;26.10;;;23.40;79.60;;;;;;5071979;28;20565;-64
2023/06/09 05:44:46;;;;;;;27.57;26.17;;;23.50;79.50;;;;;;5072010;28;20500;-64
2023/06/09 05:47:13;;;;;;;26.30;25.00;;;23.50;79.40;;;;;;5071991;28;20522;-64
2023/06/09 05:49:40;;;;;;;27.93;26.50;;;23.50;79.30;;;;;;5071806;28;20535;-64
2023/06/09 05:52:07;;;;;;;26.80;25.50;;;23.50;79.10;;;;;;5071960;28;20997;-64
2023/06/09 05:54:34;;;;;;;27.27;25.97;;;23.50;79.10;;;;;;5071847;28;20962;-64
2023/06/09 05:57:03;;;;;;;26.57;25.27;;;23.50;78.80;;;;;;5072053;28;20547;-64
2023/06/09 05:59:34;;;;;;;26.47;25.17;;;23.50;78.80;;;;;;5071615;28;20443;-64
2023/06/09 06:02:01;;;;;;;27.80;26.40;;;23.50;78.60;;;;;;5071632;28;20565;-64
2023/06/09 06:04:28;;;;;;;26.80;25.50;;;23.50;78.50;;;;;;5071794;28;20478;-64
2023/06/09 06:06:55;;;;;;;27.10;25.63;;;23.50;78.40;;;;;;5071667;28;20530;-64
2023/06/09 06:09:22;;;;;;;27.20;25.90;;;23.50;78.30;;;;;;5071310;28;20449;-64
2023/06/09 06:11:49;;;;;;;26.83;25.33;;;23.50;78.30;;;;;;5071598;28;20460;-64
2023/06/09 06:14:16;;;;;;;26.10;24.90;;;23.50;78.00;;;;;;5071689;28;20986;-64
2023/06/09 06:16:45;;;;;;;25.50;24.30;;;23.50;78.00;;;;;;5071563;28;21153;-64
2023/06/09 06:19:12;;;;;;;26.23;24.97;;;23.50;77.90;;;;;;5071318;28;20997;-63
2023/06/09 06:21:41;;;;;;;26.80;25.40;;;23.50;77.80;;;;;;5071269;28;20487;-64
2023/06/09 06:24:09;;;;;;;27.17;25.77;;;23.60;77.80;;;;;;5071537;28;20486;-63
2023/06/09 06:26:36;;;;;;;26.63;25.23;;;23.60;78.50;;;;;;5071414;28;21005;-64
2023/06/09 06:29:03;;;;;;;27.97;26.57;;;23.60;77.60;;;;;;5071324;28;20487;-65
2023/06/09 06:31:30;;;;;;;26.00;24.70;;;23.60;77.50;;;;;;5071247;28;20821;-64
2023/06/09 06:33:59;;;;;;;26.57;25.27;;;23.60;77.40;;;;;;5071456;28;20443;-64
2023/06/09 06:36:27;;;;;;;26.47;25.20;;;23.60;77.40;;;;;;5071421;28;20475;-64
2023/06/09 06:38:53;;;;;;;27.47;26.07;;;23.60;77.10;;;;;;5071189;28;20874;-64
2023/06/09 06:41:20;;;;;;;27.60;26.10;;;23.60;77.10;;;;;;5071178;28;20557;-65
2023/06/09 06:43:49;;;;;;;26.27;24.97;;;23.60;77.00;;;;;;5071341;28;20571;-64
2023/06/09 06:46:17;;;;;;;28.37;26.97;;;23.60;76.90;;;;;;5071224;28;20439;-64
2023/06/09 06:48:44;;;;;;;26.93;25.63;;;23.60;76.90;;;;;;5071049;28;20454;-64
2023/06/09 06:51:12;;;;;;;26.27;25.07;;;23.60;76.70;;;;;;5071185;28;20997;-64
2023/06/09 06:53:39;;;;;;;26.93;25.57;;;23.60;76.80;;;;;;5071061;28;20498;-65
2023/06/09 06:56:06;;;;;;;26.73;25.43;;;23.60;76.80;;;;;;5071334;28;20443;-64
2023/06/09 06:58:33;;;;;;;26.40;25.10;;;23.60;76.70;;;;;;5071054;28;20479;-64
2023/06/09 07:01:00;;;;;;;26.20;24.83;;;23.70;76.70;;;;;;5071055;28;20486;-64
2023/06/09 07:03:27;;;;;;;26.20;24.90;;;23.60;76.50;;;;;;5070806;28;20514;-64
2023/06/09 07:05:55;;;;;;;27.10;25.80;;;23.60;76.40;;;;;;5071132;28;20530;-64
2023/06/09 07:08:23;;;;;;;26.50;25.20;;;23.60;76.30;;;;;;5070747;28;20486;-64
2023/06/09 07:10:50;;;;;;;26.50;25.20;;;23.70;76.40;;;;;;5071009;28;20534;-64
2023/06/09 07:13:17;;;;;;;26.50;25.20;;;23.70;76.20;;;;;;5071023;28;20997;-64
2023/06/09 07:15:44;;;;;;;26.13;24.83;;;23.70;76.00;;;;;;5071005;28;20855;-64
2023/06/09 07:18:11;;;;;;;26.20;24.90;;;23.70;75.90;;;;;;5070847;28;20562;-63
2023/06/09 07:20:37;;;;;;;26.10;24.90;;;23.70;75.90;;;;;;5072963;28;20969;-64
2023/06/09 07:23:05;;;;;;;25.43;24.23;;;23.70;75.90;;;;;;5074822;28;20514;-64
2023/06/09 07:25:33;;;;;;;26.93;25.53;;;23.70;75.80;;;;;;5074639;28;20453;-64
2023/06/09 07:28:00;;;;;;;26.80;25.50;;;23.70;75.90;;;;;;5074621;28;20525;-64
2023/06/09 07:30:27;;;;;;;25.87;24.67;;;23.70;75.80;;;;;;5074457;28;20522;-64
2023/06/09 07:32:54;;;;;;;26.00;24.80;;;23.70;75.60;;;;;;5074574;28;20547;-64
2023/06/09 07:35:23;;;;;;;27.00;25.63;;;23.70;75.60;;;;;;5074610;28;20475;-64
2023/06/09 07:37:50;;;;;;;26.67;25.37;;;23.70;75.60;;;;;;5074344;28;20458;-64
2023/06/09 07:40:17;;;;;;;26.60;25.30;;;23.70;75.50;;;;;;5074379;28;20485;-64
2023/06/09 07:42:45;;;;;;;26.57;25.27;;;23.70;75.50;;;;;;5074247;28;20574;-64
2023/06/09 07:45:12;;;;;;;26.20;25.00;;;23.70;75.40;;;;;;5074229;28;20485;-64
2023/06/09 07:47:39;;;;;;;25.57;24.37;;;23.70;75.20;;;;;;5074334;28;20443;-64
2023/06/09 07:50:07;;;;;;;25.87;24.57;;;23.70;75.20;;;;;;5074082;28;20537;-64
2023/06/09 07:52:36;;;;;;;26.33;25.03;;;23.70;75.20;;;;;;5074166;28;20462;-64
2023/06/09 07:55:04;;;;;;;26.67;25.37;;;23.80;75.20;;;;;;5074196;28;20452;-64
2023/06/09 07:57:30;;;;;;;26.17;24.97;;;23.80;75.20;;;;;;5074104;28;20478;-64
2023/06/09 07:59:59;;;;;;;27.60;26.17;;;23.80;75.10;;;;;;5073777;28;20482;-64
2023/06/09 08:02:26;;;;;;;26.27;25.07;;;23.80;75.00;;;;;;5073817;28;20483;-62
2023/06/09 08:04:53;;;;;;;25.93;24.63;;;23.80;75.00;;;;;;5074121;28;20522;-64
2023/06/09 08:07:20;;;;;;;27.00;25.70;;;23.80;74.90;;;;;;5073943;28;20454;-64
2023/06/09 08:09:47;;;;;;;26.10;24.80;;;23.80;74.80;;;;;;5073764;28;20547;-64
2023/06/09 08:12:15;;;;;;;26.03;24.83;;;23.80;74.70;;;;;;5073920;28;20538;-65
2023/06/09 08:14:42;;;;;;;25.70;24.50;;;23.80;74.70;;;;;;5073713;28;20471;-64
2023/06/09 08:17:10;;;;;;;25.60;24.47;;;23.80;74.60;;;;;;5073813;28;20479;-65
2023/06/09 08:19:37;;;;;;;25.50;24.20;;;23.80;74.50;;;;;;5073574;28;20447;-65
2023/06/09 08:22:05;;;;;;;26.37;25.17;;;23.80;74.40;;;;;;5073560;28;20546;-64
2023/06/09 08:24:31;;;;;;;26.60;25.40;;;23.80;74.40;;;;;;5073633;28;20526;-64
2023/06/09 08:26:59;;;;;;;26.47;25.17;;;23.80;74.30;;;;;;5073588;28;20467;-65
2023/06/09 08:29:26;;;;;;;26.80;25.50;;;23.80;74.30;;;;;;5073344;28;20443;-64
2023/06/09 08:31:53;;;;;;;27.43;26.03;;;23.90;74.40;;;;;;5073110;28;20491;-64
2023/06/09 08:34:21;;;;;;;26.13;24.83;;;23.80;74.20;;;;;;5073485;28;20522;-64
2023/06/09 08:36:49;;;;;;;25.93;24.73;;;23.80;74.20;;;;;;5073402;28;20486;-65
2023/06/09 08:39:16;;;;;;;25.73;24.53;;;23.90;74.30;;;;;;5073218;28;20574;-64
2023/06/09 08:41:48;;;;;;;25.40;24.20;;;23.90;74.20;;;;;;5073283;28;20486;-64
2023/06/09 08:44:16;;;;;;;26.23;24.87;;;23.90;74.30;;;;;;5073236;28;20562;-65
2023/06/09 08:46:47;;;;;;;25.77;24.57;;;23.90;74.20;;;;;;5073242;28;20490;-64
2023/06/09 08:49:16;;;;;;;25.30;24.20;;;23.90;74.30;;;;;;5073120;28;20504;-63
2023/06/09 08:51:46;;;;;;;25.33;24.23;;;23.90;74.20;;;;;;5073079;28;20480;-64
2023/06/09 08:54:15;;;;;;;26.80;25.60;;;23.90;74.20;;;;;;5073193;28;20493;-65
2023/06/09 08:56:42;;;;;;;26.37;25.17;;;23.90;74.10;;;;;;5073003;28;20455;-65
2023/06/09 08:59:09;;;;;;;26.67;25.47;;;23.90;74.20;;;;;;5072858;28;20710;-65
2023/06/09 09:01:38;;;;;;;25.83;24.73;;;23.90;74.30;;;;;;5099140;22;20563;31
2023/06/09 09:04:05;;;;;;;25.33;24.23;;;23.90;74.30;;;;;;5051103;28;20484;-62
2023/06/09 09:06:33;;;;;;;26.77;25.57;;;23.90;74.20;;;;;;5052895;28;20536;-62
2023/06/09 09:09:01;;;;;;;26.77;25.47;;;23.90;74.10;;;;;;5052571;28;20523;-62
2023/06/09 09:11:29;;;;;;;25.30;24.17;;;24.00;74.30;;;;;;5052716;28;20476;-62
2023/06/09 09:13:56;;;;;;;25.77;24.57;;;24.00;74.20;;;;;;5052724;28;20539;-62
2023/06/09 09:16:32;;;;;;;26.30;25.10;;;24.00;74.10;;;;;;5052843;28;20539;-60
2023/06/09 09:19:00;;;;;;;25.63;24.43;;;24.00;74.10;;;;;;5052476;28;20443;-60
2023/06/09 09:21:27;;;;;;;25.47;24.27;;;24.00;74.00;;;;;;5052654;28;20519;-61
2023/06/09 09:23:59;;;;;;;26.17;24.87;;;24.00;74.10;;;;;;5052497;28;20960;-60
2023/06/09 09:26:31;;;;;;;26.53;25.33;;;24.10;74.40;;;;;;5052592;28;20531;-61
2023/06/09 09:29:01;;;;;;;26.10;24.80;;;24.00;74.40;;;;;;5052285;28;20830;-61
2023/06/09 09:31:33;;;;;;;26.77;25.47;;;24.00;74.30;;;;;;5052574;28;20973;-62
2023/06/09 09:34:00;;;;;;;25.30;24.20;;;24.00;74.20;;;;;;5052324;28;20479;-62
2023/06/09 09:36:27;;;;;;;25.80;24.50;;;24.10;74.30;;;;;;5052433;28;20451;-61
2023/06/09 09:38:56;;;;;;;25.77;24.57;;;24.10;74.20;;;;;;5052166;28;20552;-62
2023/06/09 09:41:23;;;;;;;26.50;25.20;;;24.10;74.20;;;;;;5052304;28;20946;-61
2023/06/09 09:43:57;;;;;;;25.70;24.50;;;24.10;74.10;;;;;;5051303;28;20483;-61
2023/06/09 09:46:24;;;;;;;26.63;25.33;;;24.10;74.20;;;;;;5052191;28;20433;-61
2023/06/09 09:48:52;;;;;;;25.73;24.63;;;24.10;74.10;;;;;;5051930;28;20453;-61
2023/06/09 09:51:21;;;;;;;25.77;24.57;;;24.10;74.00;;;;;;5051970;28;20547;-60
2023/06/09 09:53:50;;;;;;;26.87;25.57;;;24.10;74.10;;;;;;5051878;28;20461;-60
2023/06/09 09:56:21;;;;;;;26.60;25.40;;;24.10;74.10;;;;;;5052015;28;20479;-59
2023/06/09 09:58:52;;;;;;;25.73;24.43;;;24.10;74.70;;;;;;5051747;28;20882;-61
2023/06/09 10:01:24;;;;;;;25.67;24.47;;;24.10;73.90;;;;;;5051877;28;20487;-60
2023/06/09 10:03:53;;;;;;;25.40;24.30;;;24.10;73.80;;;;;;5051600;28;20578;-61
2023/06/09 10:06:27;;;;;;;25.03;23.93;;;24.10;73.80;;;;;;5051757;28;20819;-60
2023/06/09 10:08:55;;;;;;;26.50;25.30;;;24.20;73.80;;;;;;5051679;28;20452;-60
2023/06/09 10:11:23;;;;;;;26.50;25.20;;;24.10;73.70;;;;;;5051736;28;20498;-61
2023/06/09 10:13:51;;;;;;;26.30;25.00;;;24.20;73.80;;;;;;5051605;28;20890;-58
2023/06/09 10:16:22;;;;;;;26.63;25.33;;;24.20;73.80;;;;;;5051586;28;20459;-63
2023/06/09 10:18:49;;;;;;;26.47;25.27;;;24.20;73.70;;;;;;5051495;28;20959;-63
2023/06/09 10:21:17;;;;;;;26.17;24.97;;;24.20;73.70;;;;;;5051578;28;20887;-61
2023/06/09 10:23:44;;;;;;;25.90;24.70;;;24.20;74.30;;;;;;5051374;28;20571;-63
2023/06/09 10:26:11;;;;;;;26.90;25.70;;;24.20;73.50;;;;;;5051613;28;20871;-63
2023/06/09 10:28:38;;;;;;;26.80;25.60;;;24.20;73.40;;;;;;5051290;28;20440;-63
2023/06/09 10:31:09;;;;;;;27.17;25.87;;;24.20;73.50;;;;;;5051541;28;20535;-59
2023/06/09 10:33:41;;;;;;;26.80;25.60;;;24.20;73.30;;;;;;5051412;28;20503;-62
2023/06/09 10:36:09;;;;;;;26.53;25.23;;;24.20;73.30;;;;;;5051437;28;20574;-62
2023/06/09 10:38:41;;;;;;;26.93;25.60;;;24.20;73.30;;;;;;5051300;28;20455;-62
2023/06/09 10:41:13;;;;;;;27.30;25.90;;;24.20;73.30;;;;;;5051461;28;20468;-61
2023/06/09 10:44:10;;;;;;;25.90;24.80;;;24.30;73.30;;;;;;5051179;28;20484;-62
2023/06/09 10:46:42;;;;;;;26.37;25.17;;;24.30;73.30;;;;;;5045107;28;20491;-63
2023/06/09 10:49:38;;;;;;;26.40;25.20;;;24.30;73.20;;;;;;5051066;28;20440;-63
2023/06/09 10:52:06;;;;;;;27.27;25.97;;;24.30;73.20;;;;;;5051314;28;20460;-63
2023/06/09 10:54:35;;;;;;;26.77;25.57;;;24.30;73.00;;;;;;5053504;28;20552;-63
2023/06/09 10:57:03;;;;;;;26.80;25.50;;;24.30;73.10;;;;;;5055381;28;20510;-62
2023/06/09 11:00:11;;;;;;;26.40;25.20;;;24.30;73.10;;;;;;5055127;28;20444;-63
2023/06/09 11:02:40;;;;;;;26.60;25.40;;;24.30;72.90;;;;;;5055169;28;20479;-63
2023/06/09 11:05:09;;;;;;;27.30;26.00;;;24.30;72.80;;;;;;5055139;28;20484;-62
2023/06/09 11:07:50;;;;;;;26.07;24.77;;;24.30;72.90;;;;;;5055232;28;21112;-61
2023/06/09 11:10:35;;;;;;;27.10;25.90;;;24.30;72.90;;;;;;5055084;28;20963;-62
2023/06/09 11:13:24;;;;;;;26.10;24.90;;;24.30;72.80;;;;;;5055058;28;20456;-63
2023/06/09 11:16:01;;;;;;;26.23;25.00;;;24.30;72.70;;;;;;5054964;28;20543;-63
2023/06/09 11:18:29;;;;;;;27.40;26.10;;;24.40;72.80;;;;;;5054846;28;20443;-63
2023/06/09 11:21:26;;;;;;;27.17;25.77;;;24.40;72.80;;;;;;5054929;28;20440;-63
2023/06/09 11:24:00;;;;;;;26.90;25.60;;;24.40;72.70;;;;;;4993087;28;20569;-64
2023/06/09 11:26:28;;;;;;;27.03;25.73;;;24.40;72.60;;;;;;5043209;28;20495;-63
2023/06/09 11:28:55;;;;;;;26.10;24.90;;;24.40;73.30;;;;;;5054527;28;20475;-63
2023/06/09 11:31:24;;;;;;;25.70;24.60;;;24.40;72.60;;;;;;5054836;28;20530;-63
2023/06/09 11:33:53;;;;;;;27.90;26.60;;;24.40;72.50;;;;;;5054713;28;20878;-63
2023/06/09 11:36:22;;;;;;;27.53;26.17;;;24.50;72.60;;;;;;5054540;28;20448;-62
2023/06/09 11:38:50;;;;;;;26.37;25.17;;;24.50;72.50;;;;;;5054512;28;20476;-62
2023/06/09 11:41:24;;;;;;;26.43;25.23;;;24.50;72.50;;;;;;5054537;28;20483;-63
2023/06/09 11:43:52;;;;;;;26.80;25.60;;;24.50;72.40;;;;;;5054289;28;20491;-63
2023/06/09 11:46:20;;;;;;;26.30;25.10;;;24.50;72.20;;;;;;5054415;28;20863;-62
2023/06/09 11:49:08;;;;;;;27.30;26.10;;;24.50;72.20;;;;;;5054241;28;20439;-64
2023/06/09 11:51:55;;;;;;;26.73;25.43;;;24.50;72.90;;;;;;5054355;28;20443;-63
2023/06/09 11:54:23;;;;;;;25.83;24.63;;;24.50;72.00;;;;;;5054425;28;20475;-64
2023/06/09 11:56:51;;;;;;;26.40;25.20;;;24.60;72.00;;;;;;5054238;28;20448;-62
2023/06/09 11:59:19;;;;;;;27.47;26.27;;;24.60;72.00;;;;;;5054096;28;20448;-63
2023/06/09 12:01:48;;;;;;;26.07;24.87;;;24.60;71.90;;;;;;5053863;28;20974;-62
2023/06/09 12:04:16;;;;;;;27.43;26.13;;;24.60;71.70;;;;;;5054074;28;20479;-63
2023/06/09 12:06:46;;;;;;;26.17;24.97;;;24.60;71.70;;;;;;5053378;28;20486;-60
2023/06/09 12:09:22;;;;;;;27.13;25.93;;;24.60;71.70;;;;;;5053746;28;20459;-61
2023/06/09 12:11:53;;;;;;;26.10;24.90;;;24.60;71.60;;;;;;5053924;28;20945;-60
2023/06/09 12:14:20;;;;;;;25.93;24.77;;;24.60;71.50;;;;;;5053993;28;20446;-61
2023/06/09 12:16:47;;;;;;;26.07;24.87;;;24.70;71.50;;;;;;5053993;28;20448;-61
2023/06/09 12:19:17;;;;;;;27.50;26.10;;;24.70;71.50;;;;;;5053632;28;20539;-62
2023/06/09 12:21:47;;;;;;;26.80;25.60;;;24.70;71.50;;;;;;5053658;28;20975;-63
2023/06/09 12:24:14;;;;;;;27.20;25.90;;;24.70;71.40;;;;;;5053631;28;20484;-63
2023/06/09 12:26:42;;;;;;;27.67;26.37;;;24.70;71.30;;;;;;5053660;28;20475;-63
2023/06/09 12:29:09;;;;;;;26.73;25.23;;;24.70;71.30;;;;;;5053460;28;20879;-63
2023/06/09 12:31:44;;;;;;;26.97;25.77;;;24.70;71.10;;;;;;5053475;28;20495;-63
2023/06/09 12:34:24;;;;;;;27.37;26.10;;;24.70;71.10;;;;;;5053621;28;20472;-63
2023/06/09 12:36:51;;;;;;;27.10;25.80;;;24.80;71.10;;;;;;5053546;28;20539;-60